ADDS METAR Data INFO
IDs: Format: Raw Decoded Include TAF

Data at: 1159 UTC 25 Jun 2018

KBAZ 251151Z 16005KT 10SM BKN011 BKN016 OVC022 25/23 A2995 RMK AO2 SLP132 T02500233 10267 20250 53014
KBAZ 251134Z AUTO 18003KT 10SM BKN013 BKN020 OVC030 25/23 A2995 RMK AO2 T02500233
KBAZ 251108Z AUTO 17005KT 10SM SCT011 BKN018 OVC039 25/23 A2993 RMK AO2 T02500233
KBAZ 251051Z AUTO 17007KT 10SM BKN012 OVC018 25/23 A2992 RMK AO2 SLP123 T02500233
KBAZ 250958Z AUTO 17008KT 10SM BKN012 OVC020 26/23 A2991 RMK AO2 T02560233
KBAZ 250951Z AUTO 18007KT 10SM SCT013 BKN020 26/23 A2991 RMK AO2 SLP118 T02560233
KBAZ 250948Z AUTO 17007KT 10SM SCT013 BKN020 26/23 A2991 RMK AO2
KBAZ 250912Z AUTO 17010KT 10SM FEW014 SCT021 BKN042 26/23 A2990 RMK AO2 T02560228
KBAZ 250851Z AUTO 17011G19KT 10SM BKN015 BKN021 OVC037 26/23 A2990 RMK AO2 SLP113 T02560228 58009
KBAZ 250802Z AUTO 17009KT 10SM BKN021 26/23 A2991 RMK AO2 T02560228
KBAZ 250751Z AUTO 17010KT 10SM SCT021 25/23 A2991 RMK AO2 SLP117 T02500228
KBAZ 250651Z AUTO 16011KT 10SM FEW021 FEW028 BKN040 26/23 A2992 RMK AO2 SLP119 T02610228
KBAZ 250636Z AUTO 16011KT 10SM FEW018 SCT023 BKN040 26/23 A2992 RMK AO2 T02610228
KBAZ 250551Z AUTO 16011KT 10SM BKN018 BKN026 OVC036 27/23 A2992 RMK AO2 SLP122 T02670228 10333 20267 403670244 51014
KBAZ 250548Z AUTO 16012KT 10SM SCT020 BKN026 OVC034 27/23 A2992 RMK AO2
KBAZ 250451Z AUTO 16010KT 10SM FEW024 27/23 A2990 RMK AO2 SLP116 T02670228
KBAZ 250351Z AUTO 16009KT 10SM CLR 27/22 A2988 RMK AO2 SLP110 T02720217
KBAZ 250251Z AUTO 15011KT 10SM CLR 28/22 A2986 RMK AO2 SLP102 T02830217 53014
KBAZ 250151Z AUTO 14013KT 10SM CLR 29/22 A2984 RMK AO2 SLP096 T02940217
KBAZ 250051Z AUTO 16012KT 10SM CLR 32/21 A2983 RMK AO2 SLP090 T03170206
KBAZ 242351Z 16014KT 10SM CLR 33/21 A2982 RMK AO2 SLP087 T03330206 10367 20333 56009
KBAZ 242251Z 15019G23KT 9SM SCT055 35/21 A2982 RMK AO2 PK WND 16026/2200 SLP088 T03500206
KBAZ 242151Z 16016KT 10SM FEW060 35/21 A2983 RMK AO2 PK WND 17026/2140 SLP091 T03500211
KBAZ 242051Z 15011G21KT 10SM SCT060 35/21 A2985 RMK AO2 SLP096 T03500206 55005
KBAZ 241951Z 16019G24KT 10SM SCT055 36/21 A2984 RMK AO2 SLP095 T03610206
KBAZ 241851Z 15015G18KT 10SM SCT055 35/21 A2986 RMK AO2 SLP100 T03500206
KBAZ 241751Z 18015G19KT 10SM FEW045 35/21 A2986 RMK AO2 SLP101 T03500211 10350 20244 53001
KBAZ 241651Z 20013G22KT 10SM FEW040 33/21 A2985 RMK AO2 SLP098 T03330211
KBAZ 241551Z 18014G21KT 10SM FEW033 32/21 A2985 RMK AO2 SLP099 T03170211
KBAZ 241451Z 19015G25KT 10SM FEW024 SCT031 29/22 A2986 RMK AO2 PK WND 19028/1358 SLP102 T02940217 53008
KBAZ 241442Z 19016G22KT 10SM SCT023 BKN031 29/22 A2986 RMK AO2 PK WND 19028/1358 T02940217
KBAZ 241435Z 19017KT 10SM SCT023 BKN029 29/22 A2986 RMK AO2 PK WND 19028/1358 T02940217
KBAZ 241405Z 19016G28KT 10SM SCT020 28/22 A2985 RMK AO2 PK WND 19028/1358 T02780217
KBAZ 241351Z 18017G24KT 10SM BKN020 27/22 A2985 RMK AO2 SLP099 T02720222
KBAZ 241323Z 19017G23KT 10SM SCT017 27/22 A2985 RMK AO2 T02720222
KBAZ 241251Z 18012KT 9SM CLR 26/23 A2984 RMK AO2 SLP095 T02610228
KBAZ 241151Z 17009KT 7SM CLR 24/23 A2984 RMK AO2 SLP094 T02440228 10267 20244 58008
KBAZ 241051Z AUTO 18009KT 10SM FEW035 26/23 A2985 RMK AO2 SLP098 T02560228
KBAZ 240951Z AUTO 19009KT 10SM BKN038 26/23 A2987 RMK AO2 SLP103 T02560228
KBAZ 240932Z AUTO 19006KT 10SM FEW020 SCT026 BKN039 26/23 A2986 RMK AO2 T02610228
KBAZ 240914Z AUTO 18007KT 10SM SCT022 BKN027 BKN034 26/23 A2986 RMK AO2 T02560233
KBAZ 240851Z AUTO 17007KT 10SM FEW020 BKN043 26/23 A2986 RMK AO2 SLP101 T02610233 50002
KBAZ 240832Z AUTO 17007KT 10SM SCT020 BKN043 27/23 A2988 RMK AO2 T02670233
KBAZ 240751Z AUTO 17007KT 10SM BKN019 BKN024 OVC030 27/23 A2988 RMK AO2 SLP108 T02670233
KBAZ 240651Z AUTO 17011KT 10SM BKN018 OVC024 26/23 A2986 RMK AO2 SLP100 T02610233
KBAZ 240608Z AUTO 17011KT 10SM BKN017 26/23 A2986 RMK AO2 T02610233
KBAZ 240551Z AUTO 17010KT 10SM FEW017 26/23 A2986 RMK AO2 SLP099 T02610233 10339 20261 403720228 51028
KBAZ 240518Z AUTO 17011KT 10SM SCT020 27/23 A2985 RMK AO2 T02670233
KBAZ 240451Z AUTO 17011G19KT 10SM BKN021 27/23 A2985 RMK AO2 SLP096 T02720233
KBAZ 240351Z AUTO 17015G19KT 10SM BKN021 28/24 A2981 RMK AO2 PRESRR SLP086 T02780239
KBAZ 240343Z AUTO 16012KT 10SM BKN020 28/24 A2980 RMK AO2 T02780239
KBAZ 240251Z AUTO 17016KT 10SM SCT027 28/23 A2977 RMK AO2 SLP072 T02830233 53011
KBAZ 240151Z AUTO 15012KT 10SM SCT032 29/23 A2976 RMK AO2 SLP066 T02940233
KBAZ 240051Z AUTO 15013G21KT 10SM CLR 32/23 A2974 RMK AO2 SLP061 T03220228